Time;durP1;ratioP1;P1;durP2;ratioP2;P2;SDS_P1;SDS_P2;PMS_P1;PMS_P2;Temp;Humidity;BMP_temperature;BMP_pressure;BME280_temperature;BME280_humidity;BME280_pressure;Samples;Min_cycle;Max_cycle;Signal;HPM_P1;HPM_P2
2022/12/06 15:29:07;;;;;;;25.00;20.47;;;21.50;46.90;;;;;;618890;221;37799;-49
2022/12/06 15:31:58;;;;;;;25.23;22.07;;;21.10;47.60;;;;;;620441;226;26630;-48
2022/12/06 15:34:36;;;;;;;28.67;21.70;;;20.80;48.00;;;;;;629414;226;27049;-50
2022/12/06 15:47:50;;;;;;;25.17;19.37;;;;;;;;;;643192;221;27132;-48
2022/12/06 15:50:26;;;;;;;20.80;17.90;;;;;;;;;;643053;221;26579;-48
2022/12/06 15:53:06;;;;;;;19.50;17.20;;;;;;;;;;620473;226;26646;-50
2022/12/06 15:55:45;;;;;;;22.17;17.90;;;20.50;48.10;;;;;;630943;222;27056;-49
2022/12/06 16:01:00;;;;;;;300.98;128.45;;;20.90;48.50;;;;;;632561;220;28709;-56
2022/12/06 16:03:39;;;;;;;265.45;129.45;;;;;;;;;;623836;226;28377;-55
2022/12/06 16:06:18;;;;;;;267.17;129.05;;;20.90;48.10;;;;;;626695;225;28375;-56
2022/12/06 16:08:57;;;;;;;302.50;129.25;;;;;;;;;;626869;225;28368;-57
2022/12/06 16:11:37;;;;;;;245.32;120.97;;;;;;;;;;624599;225;28418;-58
2022/12/06 16:14:16;;;;;;;273.00;123.57;;;20.90;48.50;;;;;;627052;225;28186;-58
2022/12/06 16:16:56;;;;;;;275.15;122.62;;;;;;;;;;624630;225;39861;-58
2022/12/06 16:21:06;;;;;;;300.65;132.55;;;;;;;;;;590241;225;29374;-51
2022/12/06 16:26:31;;;;;;;291.95;129.27;;;;;;;;;;631469;224;26482;-49
2022/12/06 16:29:11;;;;;;;156.90;89.50;;;;;;;;;;599945;226;30444;-85
2022/12/06 16:32:12;;;;;;;286.45;135.18;;;;;;;;;;601719;230;159636;-49
2022/12/06 16:34:51;;;;;;;307.02;132.27;;;;;;;;;;595093;220;30990;-49
2022/12/06 16:37:31;;;;;;;302.20;135.25;;;;;;;;;;631058;221;28282;-48
2022/12/06 16:50:42;;;;;;;247.50;127.20;;;;;;;;;;629685;221;28416;-51
2022/12/06 17:00:31;;;;;;;269.77;124.80;;;;;;;;;;625365;222;26265;-49
2022/12/06 17:03:11;;;;;;;287.08;128.18;;;;;;;;;;631229;224;28218;-49
2022/12/06 17:06:01;;;;;;;248.70;122.72;;;;;;;;;;630311;224;27870;-50
2022/12/06 17:08:41;;;;;;;258.27;120.32;;;;;;;;;;631470;224;28275;-49
2022/12/06 17:14:14;;;;;;;273.92;125.65;;;;;;;;;;630239;217;28721;-49
2022/12/06 17:16:54;;;;;;;276.67;123.07;;;;;;;;;;633795;221;28273;-49
2022/12/06 17:19:33;;;;;;;277.50;126.38;;;;;;;;;;626590;224;26565;-49
2022/12/06 17:22:15;;;;;;;248.32;119.50;;;;;;;;;;631460;217;29268;-49
2022/12/06 17:24:56;;;;;;;314.75;126.45;;;;;;;;;;620836;226;28856;-50
2022/12/06 17:27:37;;;;;;;236.10;119.00;;;;;;;;;;629665;221;28261;-51
2022/12/06 17:30:16;;;;;;;276.52;122.40;;;;;;;;;;622593;225;26599;-50
2022/12/06 17:32:55;;;;;;;256.65;118.20;;;;;;;;;;629314;217;28268;-49
2022/12/06 17:35:35;;;;;;;294.02;123.03;;;;;;;;;;631598;221;28285;-49
2022/12/06 17:38:14;;;;;;;271.33;122.15;;;;;;;;;;630629;221;28751;-49
2022/12/06 17:51:25;;;;;;;255.87;119.32;;;;;;;;;;647310;217;28134;-49
2022/12/06 17:54:05;;;;;;;238.55;117.47;;;;;;;;;;628436;225;28241;-49
2022/12/06 17:56:44;;;;;;;263.25;122.72;;;;;;;;;;627616;219;28765;-49
2022/12/06 17:59:24;;;;;;;257.08;116.45;;;;;;;;;;628150;221;28390;-49
2022/12/06 18:02:05;;;;;;;257.75;117.78;;;;;;;;;;630172;224;28259;-49
2022/12/06 18:04:43;;;;;;;226.48;112.75;;;;;;;;;;630283;217;28754;-49
2022/12/06 18:07:22;;;;;;;253.12;118.90;;;;;;;;;;629581;224;28258;-49
2022/12/06 18:10:02;;;;;;;284.90;123.30;;;;;;;;;;629705;221;28379;-50
2022/12/06 18:12:42;;;;;;;247.05;118.53;;;;;;;;;;629927;221;28237;-50
2022/12/06 18:18:06;;;;;;;213.40;114.88;;;;;;;;;;632052;221;28229;-50
2022/12/06 18:20:46;;;;;;;277.50;120.03;;;;;;;;;;629248;221;28385;-50
2022/12/06 18:23:25;;;;;;;263.83;122.07;;;;;;;;;;631036;219;28735;-50
2022/12/06 18:26:04;;;;;;;266.83;119.68;;;;;;;;;;630552;217;28289;-50
2022/12/06 18:28:44;;;;;;;235.82;116.82;;;;;;;;;;629882;224;28243;-50
2022/12/06 18:31:23;;;;;;;246.65;116.97;;;;;;;;;;629962;221;28731;-50
2022/12/06 18:34:03;;;;;;;261.17;118.87;;;;;;;;;;630071;221;27360;-49
2022/12/06 18:36:43;;;;;;;256.67;118.28;;;;;;;;;;629595;221;28244;-49
2022/12/06 18:49:56;;;;;;;227.60;114.57;;;;;;;;;;632604;217;28677;-49
2022/12/06 18:52:35;;;;;;;264.00;118.90;;;;;;;;;;631860;221;28715;-49
2022/12/06 18:55:15;;;;;;;257.08;117.75;;;;;;;;;;629123;221;28273;-49
2022/12/06 18:57:54;;;;;;;299.35;121.28;;;;;;;;;;629427;225;28299;-49
2022/12/06 19:00:33;;;;;;;292.55;123.00;;;;;;;;;;622480;224;26566;-49
2022/12/06 19:03:13;;;;;;;248.45;119.55;;;;;;;;;;629703;221;28732;-49
2022/12/06 19:05:52;;;;;;;255.40;117.22;;;;;;;;;;631335;221;28264;-49
2022/12/06 19:08:37;;;;;;;244.98;116.72;;;;;;;;;;626881;222;28829;-50
2022/12/06 19:11:17;;;;;;;263.00;116.75;;;;;;;;;;629333;221;28495;-50
2022/12/06 19:13:58;;;;;;;259.65;118.00;;;;;;;;;;631453;224;28293;-49
2022/12/06 19:16:39;;;;;;;267.60;122.50;;;;;;;;;;629988;224;28224;-49
2022/12/06 19:19:21;;;;;;;252.15;121.40;;;;;;;;;;630087;221;28701;-50
2022/12/06 19:22:01;;;;;;;243.10;119.35;;;;;;;;;;629992;224;28240;-49
2022/12/06 19:24:40;;;;;;;228.00;114.93;;;;;;;;;;629173;224;29089;-48
2022/12/06 19:27:23;;;;;;;273.55;116.80;;;;;;;;;;627138;225;28314;-49
2022/12/06 19:30:03;;;;;;;240.30;116.47;;;;;;;;;;629250;224;28287;-49
2022/12/06 19:32:42;;;;;;;236.27;116.12;;;;;;;;;;628167;225;29227;-50
2022/12/06 19:46:10;;;;;;;251.18;123.38;;;;;;;;;;629356;219;28756;-50
2022/12/06 19:48:58;;;;;;;244.73;115.47;;;;;;;;;;628100;221;28260;-50
2022/12/06 19:51:38;;;;;;;242.07;115.15;;;;;;;;;;631472;221;28914;-49
2022/12/06 19:54:17;;;;;;;224.57;111.43;;;;;;;;;;631259;221;28203;-49
2022/12/06 19:56:57;;;;;;;218.70;108.50;;;;;;;;;;630449;221;28225;-49
2022/12/06 19:59:38;;;;;;;258.52;117.85;;;;;;;;;;628209;221;28982;-49
2022/12/06 20:02:15;;;;;;;300.33;123.32;;;;;;;;;;630808;221;28263;-49
2022/12/06 20:04:55;;;;;;;231.80;113.15;;;;;;;;;;631196;221;28241;-49
2022/12/06 20:07:34;;;;;;;213.25;109.15;;;;;;;;;;630364;224;28321;-49
2022/12/06 20:10:14;;;;;;;237.80;118.00;;;;;;;;;;626646;221;28417;-49
2022/12/06 20:12:53;;;;;;;240.10;118.40;;;;;;;;;;629133;221;28301;-50
2022/12/06 20:15:32;;;;;;;238.85;112.57;;;;;;;;;;629057;225;28247;-49
2022/12/06 20:18:20;;;;;;;249.15;117.68;;;;;;;;;;629578;221;28281;-49
2022/12/06 20:21:08;;;;;;;261.02;120.05;;;;;;;;;;617655;224;28998;-50
2022/12/06 20:23:47;;;;;;;270.83;117.75;;;;;;;;;;629576;221;28253;-50
2022/12/06 20:26:27;;;;;;;220.27;114.18;;;;;;;;;;630816;224;28170;-50
2022/12/06 20:29:06;;;;;;;225.93;111.62;;;;;;;;;;626663;225;28464;-49
2022/12/06 20:31:46;;;;;;;287.83;120.15;;;;;;;;;;631132;221;28752;-50
2022/12/06 20:34:27;;;;;;;262.58;119.62;;;;;;;;;;629600;221;28244;-50
2022/12/06 20:37:05;;;;;;;284.40;115.85;;;;;;;;;;616219;226;28374;-50
2022/12/06 20:39:53;;;;;;;233.82;115.35;;;;;;;;;;632226;221;28837;-49
2022/12/06 20:42:32;;;;;;;263.35;115.15;;;;;;;;;;632377;221;28461;-49
2022/12/06 20:45:17;;;;;;;251.15;114.35;;;;;;;;;;630451;217;29372;-49
2022/12/06 20:47:53;;;;;;;262.88;115.68;;;;;;;;;;631049;221;28315;-49
2022/12/06 20:50:33;;;;;;;273.40;114.03;;;;;;;;;;621196;220;28364;-48
2022/12/06 20:53:12;;;;;;;207.90;107.72;;;;;;;;;;629912;217;29229;-49
2022/12/06 20:55:51;;;;;;;244.62;110.88;;;;;;;;;;630320;221;28245;-49
2022/12/06 20:58:31;;;;;;;238.82;115.68;;;;;;;;;;628485;225;28286;-50
2022/12/06 21:01:19;;;;;;;249.43;114.68;;;;;;;;;;629444;221;28472;-50
2022/12/06 21:03:59;;;;;;;284.65;125.62;;;;;;;;;;632754;222;28250;-52
2022/12/06 21:06:37;;;;;;;228.88;115.50;;;;;;;;;;631402;224;28244;-50
2022/12/06 21:09:17;;;;;;;222.63;112.62;;;;;;;;;;625235;225;28848;-49
2022/12/06 21:11:56;;;;;;;262.88;121.10;;;;;;;;;;629417;224;28269;-48
2022/12/06 21:14:36;;;;;;;252.02;114.78;;;;;;;;;;630680;221;28259;-49
2022/12/06 21:17:15;;;;;;;261.95;117.72;;;;;;;;;;632217;222;28702;-49
2022/12/06 21:19:55;;;;;;;226.52;113.88;;;;;;;;;;650628;216;28131;-49
2022/12/06 21:22:35;;;;;;;232.10;115.57;;;;;;;;;;631227;221;28298;-49
2022/12/06 21:25:14;;;;;;;277.65;126.85;;;;;;;;;;628115;220;28912;-49
2022/12/06 21:27:54;;;;;;;234.37;110.00;;;;;;;;;;630405;221;28233;-50
2022/12/06 21:30:34;;;;;;;277.45;120.70;;;;;;;;;;618484;225;28395;-50
2022/12/06 21:33:22;;;;;;;263.33;119.97;;;;;;;;;;629414;221;28277;-49
2022/12/06 21:36:02;;;;;;;212.18;112.40;;;;;;;;;;630230;221;28254;-49
2022/12/06 21:38:41;;;;;;;227.75;113.00;;;;;;;;;;628053;225;28330;-49
2022/12/06 21:41:20;;;;;;;244.62;113.60;;;;;;;;;;632010;221;29061;-48
2022/12/06 21:44:00;;;;;;;246.13;112.60;;;;;;;;;;632776;221;28223;-49
2022/12/06 21:46:39;;;;;;;236.48;113.05;;;;;;;;;;647451;217;28602;-50
2022/12/06 21:49:19;;;;;;;281.92;121.03;;;;;;;;;;626126;225;28538;-50
2022/12/06 21:51:58;;;;;;;230.25;112.20;;;;;;;;;;631325;221;28237;-50
2022/12/06 21:54:37;;;;;;;232.57;114.20;;;;;;;;;;629464;219;28706;-50
2022/12/06 21:57:17;;;;;;;233.85;115.25;;;;;;;;;;630081;217;29216;-51
2022/12/06 21:59:56;;;;;;;279.33;119.65;;;;;;;;;;629494;221;28268;-51
2022/12/06 22:02:40;;;;;;;224.12;113.25;;;;;;;;;;629402;221;28246;-50
2022/12/06 22:05:20;;;;;;;243.98;116.10;;;;;;;;;;631634;224;28288;-50
2022/12/06 22:07:59;;;;;;;250.43;117.78;;;;;;;;;;630855;219;28916;-50
2022/12/06 22:10:38;;;;;;;290.27;124.45;;;;;;;;;;620790;224;28499;-50
2022/12/06 22:13:18;;;;;;;212.27;109.72;;;;;;;;;;630008;224;28297;-49
2022/12/06 22:16:00;;;;;;;238.23;116.05;;;;;;;;;;629294;225;28322;-50
2022/12/06 22:18:39;;;;;;;233.87;113.32;;;;;;;;;;628701;221;37990;-49
2022/12/06 22:21:19;;;;;;;236.45;113.57;;;;;;;;;;628995;224;28283;-50
2022/12/06 22:23:58;;;;;;;257.02;117.25;;;;;;;;;;628852;224;28715;-50
2022/12/06 22:26:38;;;;;;;215.60;110.37;;;;;;;;;;629794;221;28241;-50
2022/12/06 22:29:17;;;;;;;264.92;119.10;;;;;;;;;;630095;221;28397;-51
2022/12/06 22:31:56;;;;;;;239.45;116.05;;;;;;;;;;629782;219;28836;-49
2022/12/06 22:34:37;;;;;;;238.10;111.90;;;;;;;;;;620751;222;28358;-51
2022/12/06 22:37:16;;;;;;;227.82;111.47;;;;;;;;;;618547;226;28448;-52
2022/12/06 22:39:56;;;;;;;249.30;116.88;;;;;;;;;;631539;221;28250;-52
2022/12/06 22:42:44;;;;;;;209.75;109.22;;;;;;;;;;626620;224;28824;-52
2022/12/06 22:45:23;;;;;;;239.32;118.82;;;;;;;;;;633121;221;37159;-52
2022/12/06 22:48:02;;;;;;;266.27;117.87;;;;;;;;;;633294;221;28309;-52
2022/12/06 23:01:15;;;;;;;276.27;115.62;;;;;;;;;;645736;217;28121;-53
2022/12/06 23:03:54;;;;;;;272.83;119.47;;;;;;;;;;637122;221;27850;-53
2022/12/06 23:06:34;;;;;;;210.48;111.00;;;;;;;;;;618060;225;28864;-53
2022/12/06 23:09:14;;;;;;;286.27;119.78;;;;;;;;;;628996;221;28275;-51
2022/12/06 23:11:53;;;;;;;289.30;120.53;;;;;;;;;;630537;221;28281;-51
2022/12/06 23:14:32;;;;;;;255.73;110.80;;;;;;;;;;632117;222;28708;-50
2022/12/06 23:17:12;;;;;;;230.25;110.35;;;;;;;;;;630542;221;28320;-52
2022/12/06 23:19:51;;;;;;;221.95;111.90;;;;;;;;;;628214;225;28284;-53
2022/12/06 23:22:39;;;;;;;296.50;114.10;;;;;;;;;;630676;221;26435;-55
2022/12/06 23:25:18;;;;;;;233.95;113.12;;;;;;;;;;628531;221;26476;-54
2022/12/06 23:27:58;;;;;;;267.42;120.72;;;;;;;;;;629139;225;28756;-52
2022/12/06 23:30:37;;;;;;;267.37;119.50;;;;;;;;;;629586;221;28278;-52
2022/12/06 23:33:17;;;;;;;225.32;111.88;;;;;;;;;;627847;221;26552;-53
2022/12/06 23:36:02;;;;;;;251.40;118.65;;;;;;;;;;628039;225;28749;-53
2022/12/06 23:38:50;;;;;;;248.27;115.53;;;;;;;;;;629583;224;27387;-52
2022/12/06 23:41:29;;;;;;;229.80;114.32;;;;;;;;;;628436;217;28766;-52
2022/12/06 23:44:09;;;;;;;256.85;121.95;;;;;;;;;;620376;225;28417;-52
2022/12/06 23:46:48;;;;;;;234.02;111.95;;;;;;;;;;629539;221;26552;-51
2022/12/06 23:49:28;;;;;;;223.27;116.47;;;;;;;;;;636328;217;29447;-51
2022/12/06 23:52:07;;;;;;;257.52;118.80;;;;;;;;;;628686;217;28739;-52
2022/12/06 23:54:47;;;;;;;298.40;121.90;;;;;;;;;;633956;221;28280;-51
2022/12/06 23:57:26;;;;;;;264.88;121.37;;;;;;;;;;629897;217;29423;-51
